sensor_id;sensor_type;location;lat;lon;timestamp;pressure;altitude;pressure_sealevel;temperature;humidity
76605;BME280;65496;50.978;16.998;2022-12-22T00:02:32;99697.34;;;21.35;38.65
76605;BME280;65496;50.978;16.998;2022-12-22T00:05:21;99694.59;;;21.35;38.82
76605;BME280;65496;50.978;16.998;2022-12-22T00:08:07;99706.34;;;21.32;38.96
76605;BME280;65496;50.978;16.998;2022-12-22T00:10:52;99714.25;;;21.34;38.84
76605;BME280;65496;50.978;16.998;2022-12-22T00:13:39;99712.31;;;21.34;38.67
76605;BME280;65496;50.978;16.998;2022-12-22T00:16:30;99708.34;;;21.35;38.80
76605;BME280;65496;50.978;16.998;2022-12-22T00:19:14;99690.28;;;21.34;38.64
76605;BME280;65496;50.978;16.998;2022-12-22T00:22:00;99686.31;;;21.35;38.55
76605;BME280;65496;50.978;16.998;2022-12-22T00:24:46;99695.78;;;21.34;38.70
76605;BME280;65496;50.978;16.998;2022-12-22T00:27:30;99704.03;;;21.34;38.68
76605;BME280;65496;50.978;16.998;2022-12-22T00:30:16;99699.31;;;21.35;38.67
76605;BME280;65496;50.978;16.998;2022-12-22T00:33:03;99698.09;;;21.32;38.74
76605;BME280;65496;50.978;16.998;2022-12-22T00:35:49;99694.53;;;21.32;38.81
76605;BME280;65496;50.978;16.998;2022-12-22T00:38:34;99691.78;;;21.32;38.65
76605;BME280;65496;50.978;16.998;2022-12-22T00:41:19;99697.66;;;21.30;38.60
76605;BME280;65496;50.978;16.998;2022-12-22T00:44:03;99694.13;;;21.30;38.56
76605;BME280;65496;50.978;16.998;2022-12-22T00:46:47;99686.66;;;21.30;38.50
76605;BME280;65496;50.978;16.998;2022-12-22T00:49:33;99677.09;;;21.24;38.41
76605;BME280;65496;50.978;16.998;2022-12-22T00:52:20;99685.06;;;21.29;38.51
76605;BME280;65496;50.978;16.998;2022-12-22T00:55:13;99672.78;;;21.23;38.34
76605;BME280;65496;50.978;16.998;2022-12-22T00:57:58;99691.72;;;21.28;38.31
76605;BME280;65496;50.978;16.998;2022-12-22T01:00:43;99689.75;;;21.29;38.35
76605;BME280;65496;50.978;16.998;2022-12-22T01:03:28;99687.00;;;21.29;38.39
76605;BME280;65496;50.978;16.998;2022-12-22T01:06:13;99679.50;;;21.26;38.45
76605;BME280;65496;50.978;16.998;2022-12-22T01:08:57;99685.84;;;21.30;38.36
76605;BME280;65496;50.978;16.998;2022-12-22T01:11:43;99681.91;;;21.27;38.28
76605;BME280;65496;50.978;16.998;2022-12-22T01:14:27;99694.53;;;21.32;38.30
76605;BME280;65496;50.978;16.998;2022-12-22T01:17:12;99685.50;;;21.31;38.16
76605;BME280;65496;50.978;16.998;2022-12-22T01:19:56;99680.00;;;21.31;38.29
76605;BME280;65496;50.978;16.998;2022-12-22T01:22:41;99672.50;;;21.32;38.37
76605;BME280;65496;50.978;16.998;2022-12-22T01:25:25;99664.25;;;21.32;38.41
76605;BME280;65496;50.978;16.998;2022-12-22T01:28:14;99677.94;;;21.28;38.33
76605;BME280;65496;50.978;16.998;2022-12-22T01:31:28;99687.06;;;21.32;38.16
76605;BME280;65496;50.978;16.998;2022-12-22T01:34:14;99675.66;;;21.30;38.37
76605;BME280;65496;50.978;16.998;2022-12-22T01:36:58;99672.09;;;21.30;38.34
76605;BME280;65496;50.978;16.998;2022-12-22T01:39:43;99666.59;;;21.30;38.30
76605;BME280;65496;50.978;16.998;2022-12-22T01:42:30;99662.69;;;21.31;38.34
76605;BME280;65496;50.978;16.998;2022-12-22T01:45:31;99661.88;;;21.30;38.40
76605;BME280;65496;50.978;16.998;2022-12-22T01:48:20;99669.34;;;21.30;38.30
76605;BME280;65496;50.978;16.998;2022-12-22T01:51:10;99660.28;;;21.29;38.43
76605;BME280;65496;50.978;16.998;2022-12-22T01:53:56;99654.78;;;21.29;38.22
76605;BME280;65496;50.978;16.998;2022-12-22T01:56:42;99654.78;;;21.29;38.25
76605;BME280;65496;50.978;16.998;2022-12-22T01:59:27;99658.69;;;21.28;38.53
76605;BME280;65496;50.978;16.998;2022-12-22T02:02:14;99659.13;;;21.30;38.34
76605;BME280;65496;50.978;16.998;2022-12-22T02:05:00;99642.59;;;21.30;38.31
76605;BME280;65496;50.978;16.998;2022-12-22T02:17:10;99636.66;;;21.28;38.39
76605;BME280;65496;50.978;16.998;2022-12-22T02:20:18;99638.59;;;21.28;38.24
76605;BME280;65496;50.978;16.998;2022-12-22T02:26:37;99642.59;;;21.30;38.24
76605;BME280;65496;50.978;16.998;2022-12-22T02:29:27;99633.53;;;21.30;38.25
76605;BME280;65496;50.978;16.998;2022-12-22T02:32:13;99624.44;;;21.26;38.18
76605;BME280;65496;50.978;16.998;2022-12-22T02:34:57;99627.22;;;21.29;38.23
76605;BME280;65496;50.978;16.998;2022-12-22T02:40:55;99638.25;;;21.29;38.46
76605;BME280;65496;50.978;16.998;2022-12-22T02:47:24;99633.19;;;21.31;38.32
76605;BME280;65496;50.978;16.998;2022-12-22T02:50:28;99613.91;;;21.31;38.38
76605;BME280;65496;50.978;16.998;2022-12-22T02:53:15;99610.72;;;21.29;38.28
76605;BME280;65496;50.978;16.998;2022-12-22T02:56:05;99603.59;;;21.28;38.30
76605;BME280;65496;50.978;16.998;2022-12-22T02:58:50;99600.38;;;21.23;38.36
76605;BME280;65496;50.978;16.998;2022-12-22T03:01:36;99617.03;;;21.30;38.28
76605;BME280;65496;50.978;16.998;2022-12-22T03:04:21;99594.03;;;21.19;38.48
76605;BME280;65496;50.978;16.998;2022-12-22T03:07:06;99609.13;;;21.28;38.44
76605;BME280;65496;50.978;16.998;2022-12-22T03:09:50;99614.28;;;21.30;38.22
76605;BME280;65496;50.978;16.998;2022-12-22T03:12:35;99605.22;;;21.29;38.36
76605;BME280;65496;50.978;16.998;2022-12-22T03:15:19;99602.09;;;21.31;38.48
76605;BME280;65496;50.978;16.998;2022-12-22T03:18:07;99599.69;;;21.29;38.39
76605;BME280;65496;50.978;16.998;2022-12-22T03:20:52;99607.97;;;21.29;38.38
76605;BME280;65496;50.978;16.998;2022-12-22T03:23:37;99606.00;;;21.30;38.53
76605;BME280;65496;50.978;16.998;2022-12-22T03:26:22;99604.41;;;21.29;38.29
76605;BME280;65496;50.978;16.998;2022-12-22T03:28:48;99596.59;;;21.31;38.30
76605;BME280;65496;50.978;16.998;2022-12-22T03:31:14;99583.19;;;21.29;38.21
76605;BME280;65496;50.978;16.998;2022-12-22T03:33:40;99585.94;;;21.29;38.38
76605;BME280;65496;50.978;16.998;2022-12-22T03:36:06;99589.84;;;21.28;38.35
76605;BME280;65496;50.978;16.998;2022-12-22T03:38:33;99592.59;;;21.28;38.24
76605;BME280;65496;50.978;16.998;2022-12-22T03:41:00;99588.69;;;21.29;38.10
76605;BME280;65496;50.978;16.998;2022-12-22T03:43:26;99579.56;;;21.25;38.14
76605;BME280;65496;50.978;16.998;2022-12-22T03:46:12;99582.03;;;21.30;38.18
76605;BME280;65496;50.978;16.998;2022-12-22T03:49:02;99583.97;;;21.30;38.21
76605;BME280;65496;50.978;16.998;2022-12-22T03:54:12;99585.56;;;21.31;38.10
76605;BME280;65496;50.978;16.998;2022-12-22T03:56:38;99565.81;;;21.25;38.17
76605;BME280;65496;50.978;16.998;2022-12-22T03:59:05;99573.00;;;21.33;38.09
76605;BME280;65496;50.978;16.998;2022-12-22T04:01:33;99574.97;;;21.33;38.12
76605;BME280;65496;50.978;16.998;2022-12-22T04:04:01;99569.84;;;21.31;38.05
76605;BME280;65496;50.978;16.998;2022-12-22T04:06:27;99573.81;;;21.34;38.10
76605;BME280;65496;50.978;16.998;2022-12-22T04:08:53;99567.16;;;21.35;38.21
76605;BME280;65496;50.978;16.998;2022-12-22T04:11:19;99572.66;;;21.35;38.13
76605;BME280;65496;50.978;16.998;2022-12-22T04:14:04;99566.34;;;21.34;37.99
76605;BME280;65496;50.978;16.998;2022-12-22T04:16:30;99561.66;;;21.35;38.19
76605;BME280;65496;50.978;16.998;2022-12-22T04:18:56;99560.44;;;21.36;38.20
76605;BME280;65496;50.978;16.998;2022-12-22T04:21:23;99557.34;;;21.37;37.96
76605;BME280;65496;50.978;16.998;2022-12-22T04:23:49;99558.50;;;21.36;38.18
76605;BME280;65496;50.978;16.998;2022-12-22T04:26:17;99560.91;;;21.38;38.05
76605;BME280;65496;50.978;16.998;2022-12-22T04:28:44;99556.53;;;21.37;38.03
76605;BME280;65496;50.978;16.998;2022-12-22T04:31:09;99548.97;;;21.30;37.94
76605;BME280;65496;50.978;16.998;2022-12-22T04:33:36;99548.28;;;21.37;38.16
76605;BME280;65496;50.978;16.998;2022-12-22T04:36:02;99548.28;;;21.37;38.19
76605;BME280;65496;50.978;16.998;2022-12-22T04:38:28;99539.22;;;21.36;38.24
76605;BME280;65496;50.978;16.998;2022-12-22T04:40:54;99546.69;;;21.36;38.08
76605;BME280;65496;50.978;16.998;2022-12-22T04:43:20;99540.38;;;21.35;38.25
76605;BME280;65496;50.978;16.998;2022-12-22T04:45:46;99533.72;;;21.36;37.98
76605;BME280;65496;50.978;16.998;2022-12-22T04:48:12;99532.13;;;21.35;38.18
76605;BME280;65496;50.978;16.998;2022-12-22T04:50:37;99526.63;;;21.35;38.13
76605;BME280;65496;50.978;16.998;2022-12-22T04:53:04;99518.34;;;21.35;38.30
76605;BME280;65496;50.978;16.998;2022-12-22T04:55:29;99521.91;;;21.36;38.71
76605;BME280;65496;50.978;16.998;2022-12-22T04:57:55;99526.63;;;21.35;39.08
76605;BME280;65496;50.978;16.998;2022-12-22T05:00:21;99525.47;;;21.36;38.89
76605;BME280;65496;50.978;16.998;2022-12-22T05:02:47;99512.47;;;21.37;39.08
76605;BME280;65496;50.978;16.998;2022-12-22T05:05:13;99520.38;;;21.38;38.87
76605;BME280;65496;50.978;16.998;2022-12-22T05:07:39;99522.28;;;21.34;39.07
76605;BME280;65496;50.978;16.998;2022-12-22T05:10:06;99530.59;;;21.38;39.03
76605;BME280;65496;50.978;16.998;2022-12-22T05:12:32;99530.97;;;21.36;39.10
76605;BME280;65496;50.978;16.998;2022-12-22T05:15:16;99527.06;;;21.37;38.97
76605;BME280;65496;50.978;16.998;2022-12-22T05:17:42;99530.97;;;21.36;38.98
76605;BME280;65496;50.978;16.998;2022-12-22T05:20:08;99525.47;;;21.36;39.15
76605;BME280;65496;50.978;16.998;2022-12-22T05:22:34;99517.19;;;21.36;39.27
76605;BME280;65496;50.978;16.998;2022-12-22T05:25:00;99520.75;;;21.37;39.53
76605;BME280;65496;50.978;16.998;2022-12-22T05:27:27;99513.66;;;21.36;39.46
76605;BME280;65496;50.978;16.998;2022-12-22T05:29:52;99510.22;;;21.43;39.62
76605;BME280;65496;50.978;16.998;2022-12-22T05:32:19;99509.81;;;21.44;39.42
76605;BME280;65496;50.978;16.998;2022-12-22T05:34:45;99508.66;;;21.45;39.30
76605;BME280;65496;50.978;16.998;2022-12-22T05:37:11;99509.47;;;21.46;39.64
76605;BME280;65496;50.978;16.998;2022-12-22T05:39:37;99501.94;;;21.43;39.29
76605;BME280;65496;50.978;16.998;2022-12-22T05:42:03;99493.69;;;21.43;39.30
76605;BME280;65496;50.978;16.998;2022-12-22T05:44:29;99500.75;;;21.44;39.52
76605;BME280;65496;50.978;16.998;2022-12-22T05:46:55;99501.56;;;21.44;39.34
76605;BME280;65496;50.978;16.998;2022-12-22T05:49:21;99499.59;;;21.45;39.51
76605;BME280;65496;50.978;16.998;2022-12-22T05:51:47;99499.25;;;21.46;39.49
76605;BME280;65496;50.978;16.998;2022-12-22T05:54:13;99490.13;;;21.42;39.30
76605;BME280;65496;50.978;16.998;2022-12-22T05:56:39;99478.72;;;21.44;39.56
76605;BME280;65496;50.978;16.998;2022-12-22T05:59:05;99488.19;;;21.43;39.51
76605;BME280;65496;50.978;16.998;2022-12-22T06:01:31;99474.81;;;21.45;39.49
76605;BME280;65496;50.978;16.998;2022-12-22T06:03:57;99481.09;;;21.42;39.61
76605;BME280;65496;50.978;16.998;2022-12-22T06:06:23;99481.50;;;21.44;39.51
76605;BME280;65496;50.978;16.998;2022-12-22T06:08:49;99472.81;;;21.42;39.53
76605;BME280;65496;50.978;16.998;2022-12-22T06:11:15;99483.84;;;21.42;39.52
76605;BME280;65496;50.978;16.998;2022-12-22T06:13:43;99480.28;;;21.41;39.52
76605;BME280;65496;50.978;16.998;2022-12-22T06:16:10;99445.41;;;21.22;39.49
76605;BME280;65496;50.978;16.998;2022-12-22T06:18:36;99467.66;;;21.40;39.45
76605;BME280;65496;50.978;16.998;2022-12-22T06:21:02;99478.69;;;21.40;39.50
76605;BME280;65496;50.978;16.998;2022-12-22T06:23:28;99468.44;;;21.37;39.39
76605;BME280;65496;50.978;16.998;2022-12-22T06:25:56;99467.66;;;21.40;39.45
76605;BME280;65496;50.978;16.998;2022-12-22T06:28:22;99466.09;;;21.39;39.53
76605;BME280;65496;50.978;16.998;2022-12-22T06:30:49;99458.56;;;21.36;39.31
76605;BME280;65496;50.978;16.998;2022-12-22T06:33:15;99467.28;;;21.38;39.44
76605;BME280;65496;50.978;16.998;2022-12-22T06:35:41;99462.91;;;21.37;39.39
76605;BME280;65496;50.978;16.998;2022-12-22T06:38:07;99456.63;;;21.36;39.37
76605;BME280;65496;50.978;16.998;2022-12-22T06:40:33;99454.63;;;21.33;39.27
76605;BME280;65496;50.978;16.998;2022-12-22T06:42:59;99461.31;;;21.36;39.47
76605;BME280;65496;50.978;16.998;2022-12-22T06:45:35;99464.50;;;21.38;39.53
76605;BME280;65496;50.978;16.998;2022-12-22T06:48:01;99459.81;;;21.38;39.53
76605;BME280;65496;50.978;16.998;2022-12-22T06:50:28;99456.25;;;21.38;39.26
76605;BME280;65496;50.978;16.998;2022-12-22T06:52:54;99464.88;;;21.36;39.38
76605;BME280;65496;50.978;16.998;2022-12-22T06:55:20;99455.47;;;21.37;39.31
76605;BME280;65496;50.978;16.998;2022-12-22T06:57:46;99453.84;;;21.36;39.40
76605;BME280;65496;50.978;16.998;2022-12-22T07:00:12;99458.22;;;21.37;39.45
76605;BME280;65496;50.978;16.998;2022-12-22T07:02:38;99457.41;;;21.37;39.68
76605;BME280;65496;50.978;16.998;2022-12-22T07:05:05;99448.75;;;21.35;39.65
76605;BME280;65496;50.978;16.998;2022-12-22T07:07:31;99447.16;;;21.34;39.95
76605;BME280;65496;50.978;16.998;2022-12-22T07:09:57;99444.75;;;21.32;40.06
76605;BME280;65496;50.978;16.998;2022-12-22T07:12:23;99433.28;;;21.27;39.80
76605;BME280;65496;50.978;16.998;2022-12-22T07:14:49;99440.44;;;21.31;40.05
76605;BME280;65496;50.978;16.998;2022-12-22T07:17:15;99433.34;;;21.30;39.98
76605;BME280;65496;50.978;16.998;2022-12-22T07:19:41;99421.03;;;21.24;39.97
76605;BME280;65496;50.978;16.998;2022-12-22T07:22:07;99434.50;;;21.29;39.97
76605;BME280;65496;50.978;16.998;2022-12-22T07:24:33;99434.50;;;21.29;40.15
76605;BME280;65496;50.978;16.998;2022-12-22T07:26:59;99425.84;;;21.27;40.24
76605;BME280;65496;50.978;16.998;2022-12-22T07:29:25;99431.34;;;21.27;39.97
76605;BME280;65496;50.978;16.998;2022-12-22T07:31:51;99430.16;;;21.28;40.28
76605;BME280;65496;50.978;16.998;2022-12-22T07:34:17;99425.84;;;21.27;40.10
76605;BME280;65496;50.978;16.998;2022-12-22T07:36:43;99423.06;;;21.27;40.35
76605;BME280;65496;50.978;16.998;2022-12-22T07:39:11;99423.44;;;21.26;40.40
76605;BME280;65496;50.978;16.998;2022-12-22T07:41:37;99400.22;;;21.23;40.12
76605;BME280;65496;50.978;16.998;2022-12-22T07:44:22;99405.31;;;21.25;40.17
76605;BME280;65496;50.978;16.998;2022-12-22T07:46:48;99392.31;;;21.22;40.16
76605;BME280;65496;50.978;16.998;2022-12-22T07:49:14;99391.56;;;21.25;40.27
76605;BME280;65496;50.978;16.998;2022-12-22T07:51:59;99397.50;;;21.27;40.06
76605;BME280;65496;50.978;16.998;2022-12-22T07:54:27;99389.25;;;21.27;40.09
76605;BME280;65496;50.978;16.998;2022-12-22T07:56:53;99378.94;;;21.24;40.15
76605;BME280;65496;50.978;16.998;2022-12-22T07:59:19;99380.97;;;21.27;40.04
76605;BME280;65496;50.978;16.998;2022-12-22T08:01:45;99376.28;;;21.27;40.09
76605;BME280;65496;50.978;16.998;2022-12-22T08:04:12;99380.19;;;21.26;40.11
76605;BME280;65496;50.978;16.998;2022-12-22T08:06:39;99372.75;;;21.30;40.31
76605;BME280;65496;50.978;16.998;2022-12-22T08:09:06;99371.59;;;21.31;40.68
76605;BME280;65496;50.978;16.998;2022-12-22T08:11:33;99370.41;;;21.32;40.51
76605;BME280;65496;50.978;16.998;2022-12-22T08:13:59;99364.88;;;21.29;40.72
76605;BME280;65496;50.978;16.998;2022-12-22T08:16:25;99373.91;;;21.29;41.17
76605;BME280;65496;50.978;16.998;2022-12-22T08:18:51;99364.50;;;21.30;40.83
76605;BME280;65496;50.978;16.998;2022-12-22T08:21:17;99361.75;;;21.30;40.94
76605;BME280;65496;50.978;16.998;2022-12-22T08:23:43;99365.31;;;21.31;40.60
76605;BME280;65496;50.978;16.998;2022-12-22T08:26:17;99360.59;;;21.31;40.91
76605;BME280;65496;50.978;16.998;2022-12-22T08:29:15;99359.78;;;21.31;40.93
76605;BME280;65496;50.978;16.998;2022-12-22T08:31:42;99355.09;;;21.31;40.75
76605;BME280;65496;50.978;16.998;2022-12-22T08:34:11;99349.16;;;21.29;40.85
76605;BME280;65496;50.978;16.998;2022-12-22T08:36:41;99331.81;;;21.29;40.86
76605;BME280;65496;50.978;16.998;2022-12-22T08:39:09;99337.34;;;21.29;40.86
76605;BME280;65496;50.978;16.998;2022-12-22T08:41:36;99332.22;;;21.27;40.86
76605;BME280;65496;50.978;16.998;2022-12-22T08:44:16;99341.63;;;21.26;40.74
76605;BME280;65496;50.978;16.998;2022-12-22T08:46:41;99343.63;;;21.29;41.10
76605;BME280;65496;50.978;16.998;2022-12-22T08:49:08;99341.34;;;21.35;40.71
76605;BME280;65496;50.978;16.998;2022-12-22T08:51:33;99335.50;;;21.40;40.99
76605;BME280;65496;50.978;16.998;2022-12-22T08:54:00;99332.38;;;21.42;40.95
76605;BME280;65496;50.978;16.998;2022-12-22T08:56:25;99334.75;;;21.43;41.37
76605;BME280;65496;50.978;16.998;2022-12-22T08:58:52;99344.59;;;21.44;41.98
76605;BME280;65496;50.978;16.998;2022-12-22T09:01:20;99336.78;;;21.50;41.97
76605;BME280;65496;50.978;16.998;2022-12-22T09:03:48;99326.25;;;21.59;41.88
76605;BME280;65496;50.978;16.998;2022-12-22T09:06:14;99326.72;;;21.64;41.75
76605;BME280;65496;50.978;16.998;2022-12-22T09:08:40;99324.38;;;21.66;41.69
76605;BME280;65496;50.978;16.998;2022-12-22T09:11:06;99327.22;;;21.77;41.49
76605;BME280;65496;50.978;16.998;2022-12-22T09:13:32;99320.19;;;21.83;41.40
76605;BME280;65496;50.978;16.998;2022-12-22T09:15:58;99326.63;;;21.94;41.26
76605;BME280;65496;50.978;16.998;2022-12-22T09:18:24;99333.75;;;21.99;41.24
76605;BME280;65496;50.978;16.998;2022-12-22T09:20:54;99334.19;;;22.01;41.23
76605;BME280;65496;50.978;16.998;2022-12-22T09:23:20;99322.75;;;22.02;41.20
76605;BME280;65496;50.978;16.998;2022-12-22T09:25:46;99327.50;;;22.05;41.15
76605;BME280;65496;50.978;16.998;2022-12-22T09:28:12;99321.22;;;22.05;41.12
76605;BME280;65496;50.978;16.998;2022-12-22T09:30:38;99326.34;;;22.06;41.37
76605;BME280;65496;50.978;16.998;2022-12-22T09:33:04;99310.19;;;22.05;40.93
76605;BME280;65496;50.978;16.998;2022-12-22T09:35:30;99324.34;;;22.03;40.99
76605;BME280;65496;50.978;16.998;2022-12-22T09:37:56;99312.53;;;22.03;40.48
76605;BME280;65496;50.978;16.998;2022-12-22T09:40:22;99308.59;;;22.04;40.40
76605;BME280;65496;50.978;16.998;2022-12-22T09:42:49;99291.28;;;22.03;40.27
76605;BME280;65496;50.978;16.998;2022-12-22T09:45:16;99292.88;;;22.04;40.11
76605;BME280;65496;50.978;16.998;2022-12-22T09:47:49;99296.44;;;22.08;39.66
76605;BME280;65496;50.978;16.998;2022-12-22T09:50:23;99283.81;;;22.07;39.36
76605;BME280;65496;50.978;16.998;2022-12-22T09:52:53;99289.31;;;22.04;39.57
76605;BME280;65496;50.978;16.998;2022-12-22T09:57:50;99281.00;;;21.97;39.42
76605;BME280;65496;50.978;16.998;2022-12-22T10:00:19;99274.69;;;21.96;39.12
76605;BME280;65496;50.978;16.998;2022-12-22T10:08:33;99258.50;;;21.91;38.81
76605;BME280;65496;50.978;16.998;2022-12-22T10:10:59;99256.06;;;21.90;39.01
76605;BME280;65496;50.978;16.998;2022-12-22T10:13:26;99235.94;;;21.82;38.55
76605;BME280;65496;50.978;16.998;2022-12-22T10:15:52;99240.72;;;21.85;38.40
76605;BME280;65496;50.978;16.998;2022-12-22T10:18:20;99235.19;;;21.85;38.12
76605;BME280;65496;50.978;16.998;2022-12-22T10:21:11;99237.56;;;21.86;38.59
76605;BME280;65496;50.978;16.998;2022-12-22T10:23:40;99232.44;;;21.85;38.58
76605;BME280;65496;50.978;16.998;2022-12-22T10:26:24;99239.53;;;21.90;38.63
76605;BME280;65496;50.978;16.998;2022-12-22T10:31:57;99256.06;;;21.90;38.61
76605;BME280;65496;50.978;16.998;2022-12-22T10:34:24;99253.72;;;21.88;38.80
76605;BME280;65496;50.978;16.998;2022-12-22T10:36:54;99243.06;;;21.86;39.04
76605;BME280;65496;50.978;16.998;2022-12-22T10:39:29;99233.25;;;21.89;39.15
76605;BME280;65496;50.978;16.998;2022-12-22T10:42:00;99231.28;;;21.90;38.88
76605;BME280;65496;50.978;16.998;2022-12-22T10:44:31;99227.34;;;21.91;38.84
76605;BME280;65496;50.978;16.998;2022-12-22T10:47:14;99226.56;;;21.90;38.93
76605;BME280;65496;50.978;16.998;2022-12-22T10:49:43;99216.31;;;21.91;38.97
76605;BME280;65496;50.978;16.998;2022-12-22T10:52:21;99213.97;;;21.89;39.03
76605;BME280;65496;50.978;16.998;2022-12-22T10:54:48;99213.22;;;21.92;38.90
76605;BME280;65496;50.978;16.998;2022-12-22T11:00:00;99204.16;;;21.92;39.00
76605;BME280;65496;50.978;16.998;2022-12-22T11:02:34;99202.94;;;21.89;38.99
76605;BME280;65496;50.978;16.998;2022-12-22T11:05:05;99193.84;;;21.85;39.20
76605;BME280;65496;50.978;16.998;2022-12-22T11:07:35;99201.75;;;21.90;39.28
76605;BME280;65496;50.978;16.998;2022-12-22T11:10:17;99207.25;;;21.90;39.44
76605;BME280;65496;50.978;16.998;2022-12-22T11:26:15;99178.56;;;21.91;39.41
76605;BME280;65496;50.978;16.998;2022-12-22T11:29:04;99174.66;;;21.92;39.34
76605;BME280;65496;50.978;16.998;2022-12-22T11:39:53;99160.38;;;21.83;39.59
76605;BME280;65496;50.978;16.998;2022-12-22T11:50:52;99144.66;;;21.87;39.75
76605;BME280;65496;50.978;16.998;2022-12-22T11:56:22;99117.88;;;21.88;39.66
76605;BME280;65496;50.978;16.998;2022-12-22T12:07:33;99086.47;;;21.96;39.58
76605;BME280;65496;50.978;16.998;2022-12-22T12:17:58;99070.34;;;22.01;39.71
76605;BME280;65496;50.978;16.998;2022-12-22T12:20:52;99059.31;;;22.01;40.11
76605;BME280;65496;50.978;16.998;2022-12-22T12:26:39;99064.06;;;22.04;39.96
76605;BME280;65496;50.978;16.998;2022-12-22T12:29:23;99082.16;;;22.05;39.95
76605;BME280;65496;50.978;16.998;2022-12-22T12:32:02;99071.16;;;22.05;39.59
76605;BME280;65496;50.978;16.998;2022-12-22T12:34:32;99073.13;;;22.05;39.15
76605;BME280;65496;50.978;16.998;2022-12-22T12:37:06;99070.75;;;22.03;39.28
76605;BME280;65496;50.978;16.998;2022-12-22T12:42:33;99092.78;;;22.00;39.44
76605;BME280;65496;50.978;16.998;2022-12-22T12:45:00;99087.66;;;21.98;39.22
76605;BME280;65496;50.978;16.998;2022-12-22T12:47:29;99088.06;;;21.97;39.28
76605;BME280;65496;50.978;16.998;2022-12-22T12:49:59;99098.28;;;21.96;39.22
76605;BME280;65496;50.978;16.998;2022-12-22T12:55:30;99091.19;;;21.95;39.53
76605;BME280;65496;50.978;16.998;2022-12-22T12:57:58;99091.19;;;21.95;39.47
76605;BME280;65496;50.978;16.998;2022-12-22T13:02:58;99078.56;;;21.94;39.47
76605;BME280;65496;50.978;16.998;2022-12-22T13:06:01;99083.28;;;21.94;39.53
76605;BME280;65496;50.978;16.998;2022-12-22T13:08:22;99076.22;;;21.93;39.68
76605;BME280;65496;50.978;16.998;2022-12-22T13:23:56;99084.13;;;22.01;39.64
76605;BME280;65496;50.978;16.998;2022-12-22T13:29:17;99074.69;;;22.02;38.83
76605;BME280;65496;50.978;16.998;2022-12-22T13:37:00;99058.56;;;22.04;38.82
76605;BME280;65496;50.978;16.998;2022-12-22T13:39:27;99066.84;;;22.04;38.53
76605;BME280;65496;50.978;16.998;2022-12-22T13:41:53;99070.38;;;22.05;38.98
76605;BME280;65496;50.978;16.998;2022-12-22T13:44:31;99070.38;;;22.05;38.67
76605;BME280;65496;50.978;16.998;2022-12-22T13:47:12;99066.03;;;22.00;39.15
76605;BME280;65496;50.978;16.998;2022-12-22T13:49:40;99064.81;;;22.01;39.10
76605;BME280;65496;50.978;16.998;2022-12-22T13:52:12;99053.78;;;22.01;38.85
76605;BME280;65496;50.978;16.998;2022-12-22T13:54:44;99053.03;;;22.01;38.69
76605;BME280;65496;50.978;16.998;2022-12-22T13:57:19;99049.88;;;22.02;38.42
76605;BME280;65496;50.978;16.998;2022-12-22T13:59:48;99043.97;;;22.00;38.80
76605;BME280;65496;50.978;16.998;2022-12-22T14:02:18;99039.25;;;21.97;39.00
76605;BME280;65496;50.978;16.998;2022-12-22T14:05:05;99028.22;;;22.01;39.09
76605;BME280;65496;50.978;16.998;2022-12-22T14:07:32;99025.06;;;21.99;38.88
76605;BME280;65496;50.978;16.998;2022-12-22T14:09:58;99020.72;;;22.01;38.97
76605;BME280;65496;50.978;16.998;2022-12-22T14:12:27;99017.19;;;21.97;39.33
76605;BME280;65496;50.978;16.998;2022-12-22T14:14:56;99014.81;;;21.92;39.25
76605;BME280;65496;50.978;16.998;2022-12-22T14:17:25;99026.25;;;22.01;39.33
76605;BME280;65496;50.978;16.998;2022-12-22T14:19:57;99029.03;;;22.05;39.51
76605;BME280;65496;50.978;16.998;2022-12-22T14:22:26;99025.06;;;22.06;39.58
76605;BME280;65496;50.978;16.998;2022-12-22T14:25:00;99033.75;;;22.08;39.65
76605;BME280;65496;50.978;16.998;2022-12-22T14:30:06;99029.03;;;22.08;39.76
76605;BME280;65496;50.978;16.998;2022-12-22T14:32:40;99028.63;;;22.10;39.86
76605;BME280;65496;50.978;16.998;2022-12-22T14:38:13;99023.91;;;22.07;39.87
76605;BME280;65496;50.978;16.998;2022-12-22T14:40:42;99019.97;;;22.01;39.90
76605;BME280;65496;50.978;16.998;2022-12-22T14:45:45;99032.97;;;22.07;40.27
76605;BME280;65496;50.978;16.998;2022-12-22T14:48:28;99044.00;;;22.07;40.32
76605;BME280;65496;50.978;16.998;2022-12-22T14:50:55;99044.00;;;22.07;40.37
76605;BME280;65496;50.978;16.998;2022-12-22T14:53:24;99028.59;;;21.99;40.23
76605;BME280;65496;50.978;16.998;2022-12-22T14:55:52;99039.28;;;22.04;40.36
76605;BME280;65496;50.978;16.998;2022-12-22T14:58:26;99040.81;;;22.05;40.40
76605;BME280;65496;50.978;16.998;2022-12-22T15:01:33;99049.88;;;22.06;40.31
76605;BME280;65496;50.978;16.998;2022-12-22T15:04:18;99047.94;;;22.06;40.56
76605;BME280;65496;50.978;16.998;2022-12-22T15:06:46;99040.81;;;22.05;40.52
76605;BME280;65496;50.978;16.998;2022-12-22T15:11:43;99043.97;;;22.04;40.53
76605;BME280;65496;50.978;16.998;2022-12-22T15:14:13;99043.19;;;22.03;40.27
76605;BME280;65496;50.978;16.998;2022-12-22T15:16:40;99042.00;;;22.01;40.16
76605;BME280;65496;50.978;16.998;2022-12-22T15:19:07;99040.00;;;21.98;40.19
76605;BME280;65496;50.978;16.998;2022-12-22T15:21:35;99046.31;;;21.95;40.18
76605;BME280;65496;50.978;16.998;2022-12-22T15:24:02;99030.09;;;21.86;40.08
76605;BME280;65496;50.978;16.998;2022-12-22T15:26:32;99030.50;;;21.88;39.94
76605;BME280;65496;50.978;16.998;2022-12-22T15:28:58;99031.66;;;21.87;40.05
76605;BME280;65496;50.978;16.998;2022-12-22T15:31:24;99029.69;;;21.84;40.16